Oakdale, NY

7:06 PM EDT on March 28, 2015 (GMT -0400)
The Gabreski | | Change Station
CLOSE
Current Station
Airport
Location: Westhampton Beach,
Elevation: 66 ft
Nearby Weather Stations

Elev 66 ft 40.85 °N, 72.62 °W | Updated 4 minutes ago

Snow
Snow
30 °F
Feels Like 20 °F
N
12
Wind Variable Wind from NW

Today
High -- | Low -- °F
--% Chance of Precip.
Yesterday
High -- | Low -- °F
Precip. -- in
6:43 AM 7:12 PM
Waxing Gibbous, 66% visible
Pressure 29.93 in
Visibility 0.8 miles
Clouds Mostly Cloudy 900 ft
Overcast 1900 ft
Windchill 20 °F
Dew Point 27 °F
Humidity 88%
Rainfall 0.02 in
Snow Depth Not available.
UV 0 out of 12
Pollen 3.60 out of 12
Air Quality Not available.
Flu Activity Not available.
SPECI KFOK 282302Z 31010KT 3/4SM -SN BR BKN009 OVC019 M01/M03 A2993 RMK AO2 P0000 T10111028

More Conditions Fewer Conditions

Pressure 29.93 in
Visibility 0.8 miles
Clouds Mostly Cloudy 900 ft
Overcast 1900 ft
Windchill 20 °F
Dew Point 27 °F
Humidity 88%
Rainfall 0.02 in
Snow Depth Not available.
UV 0 out of 12
Pollen 3.60 out of 12
Air Quality Not available.
Flu Activity Not available.
SPECI KFOK 282302Z 31010KT 3/4SM -SN BR BKN009 OVC019 M01/M03 A2993 RMK AO2 P0000 T10111028

More Conditions Fewer Conditions

10-Day Weather Forecast

Almanac

Astronomy

Mar. 28, 2015 Rise Set
Actual Time
Civil Twilight
Nautical Twilight
Astronomical Twilight
Moon
Length of Visible Light
Length of Day
Tomorrow will be .
, % of the Moon is Illuminated

Today's Extremes

State Highs State Lows

Community

WunderPhotos

Upload Photos

1,809,121 photos uploaded!

WunderBlogs® & News

Nearby

Air Quality

  Air Quality AQ Index Pollutant
Not available.

Snow Depth

Station Depth Elevation

Earthquake Activity

City Distance Mag. Time & Date
Minimum magnitude displayed is 2.5.

Coastal Water Temperatures

Place Temperature

Stations

Nearby Weather Stations

Station Location Temp. Windchill Dew Point Humidity Wind Precip. Elev Updated Type